sensor_id;sensor_type;location;lat;lon;timestamp;P1;durP1;ratioP1;P2;durP2;ratioP2
18090;SDS011;9172;49.948;9.208;2023-02-28T00:00:27;3.73;;;1.90;;
18090;SDS011;9172;49.948;9.208;2023-02-28T00:02:56;2.50;;;1.90;;
18090;SDS011;9172;49.948;9.208;2023-02-28T00:05:25;5.63;;;2.30;;
18090;SDS011;9172;49.948;9.208;2023-02-28T00:07:56;2.20;;;1.67;;
18090;SDS011;9172;49.948;9.208;2023-02-28T00:10:27;2.67;;;2.33;;
18090;SDS011;9172;49.948;9.208;2023-02-28T00:12:59;5.83;;;2.37;;
18090;SDS011;9172;49.948;9.208;2023-02-28T00:15:28;2.47;;;2.00;;
18090;SDS011;9172;49.948;9.208;2023-02-28T00:17:56;4.27;;;2.43;;
18090;SDS011;9172;49.948;9.208;2023-02-28T00:20:27;5.53;;;2.50;;
18090;SDS011;9172;49.948;9.208;2023-02-28T00:22:57;4.07;;;2.33;;
18090;SDS011;9172;49.948;9.208;2023-02-28T00:25:26;3.83;;;2.10;;
18090;SDS011;9172;49.948;9.208;2023-02-28T00:27:56;2.47;;;1.90;;
18090;SDS011;9172;49.948;9.208;2023-02-28T00:30:25;2.33;;;1.83;;
18090;SDS011;9172;49.948;9.208;2023-02-28T00:32:54;3.40;;;2.20;;
18090;SDS011;9172;49.948;9.208;2023-02-28T00:35:24;3.07;;;2.17;;
18090;SDS011;9172;49.948;9.208;2023-02-28T00:37:53;3.13;;;1.87;;
18090;SDS011;9172;49.948;9.208;2023-02-28T00:40:21;2.43;;;2.10;;
18090;SDS011;9172;49.948;9.208;2023-02-28T00:42:51;4.30;;;2.40;;
18090;SDS011;9172;49.948;9.208;2023-02-28T00:45:19;5.13;;;2.10;;
18090;SDS011;9172;49.948;9.208;2023-02-28T00:47:51;4.00;;;2.70;;
18090;SDS011;9172;49.948;9.208;2023-02-28T00:50:20;3.03;;;2.33;;
18090;SDS011;9172;49.948;9.208;2023-02-28T00:52:49;2.77;;;2.00;;
18090;SDS011;9172;49.948;9.208;2023-02-28T00:55:18;4.43;;;2.30;;
18090;SDS011;9172;49.948;9.208;2023-02-28T00:57:47;3.23;;;1.70;;
18090;SDS011;9172;49.948;9.208;2023-02-28T01:00:16;3.37;;;2.00;;
18090;SDS011;9172;49.948;9.208;2023-02-28T01:02:46;4.30;;;2.13;;
18090;SDS011;9172;49.948;9.208;2023-02-28T01:05:15;3.80;;;2.27;;
18090;SDS011;9172;49.948;9.208;2023-02-28T01:07:44;3.50;;;2.20;;
18090;SDS011;9172;49.948;9.208;2023-02-28T01:10:14;3.30;;;2.10;;
18090;SDS011;9172;49.948;9.208;2023-02-28T01:12:44;3.63;;;1.70;;
18090;SDS011;9172;49.948;9.208;2023-02-28T01:15:12;2.20;;;1.83;;
18090;SDS011;9172;49.948;9.208;2023-02-28T01:17:43;3.03;;;1.90;;
18090;SDS011;9172;49.948;9.208;2023-02-28T01:20:12;5.87;;;2.40;;
18090;SDS011;9172;49.948;9.208;2023-02-28T01:22:42;2.50;;;2.07;;
18090;SDS011;9172;49.948;9.208;2023-02-28T01:25:12;4.07;;;2.03;;
18090;SDS011;9172;49.948;9.208;2023-02-28T01:27:43;4.77;;;2.60;;
18090;SDS011;9172;49.948;9.208;2023-02-28T01:30:12;3.00;;;1.90;;
18090;SDS011;9172;49.948;9.208;2023-02-28T01:32:41;3.70;;;2.40;;
18090;SDS011;9172;49.948;9.208;2023-02-28T01:35:09;3.87;;;2.40;;
18090;SDS011;9172;49.948;9.208;2023-02-28T01:37:38;2.13;;;1.93;;
18090;SDS011;9172;49.948;9.208;2023-02-28T01:40:08;8.23;;;2.23;;
18090;SDS011;9172;49.948;9.208;2023-02-28T01:42:38;3.27;;;2.07;;
18090;SDS011;9172;49.948;9.208;2023-02-28T01:45:16;2.90;;;2.00;;
18090;SDS011;9172;49.948;9.208;2023-02-28T01:47:48;3.30;;;2.20;;
18090;SDS011;9172;49.948;9.208;2023-02-28T01:50:20;4.33;;;2.60;;
18090;SDS011;9172;49.948;9.208;2023-02-28T01:52:51;2.40;;;1.80;;
18090;SDS011;9172;49.948;9.208;2023-02-28T01:55:22;2.37;;;1.60;;
18090;SDS011;9172;49.948;9.208;2023-02-28T01:57:55;3.30;;;2.03;;
18090;SDS011;9172;49.948;9.208;2023-02-28T02:00:27;4.07;;;2.10;;
18090;SDS011;9172;49.948;9.208;2023-02-28T02:02:57;3.27;;;1.93;;
18090;SDS011;9172;49.948;9.208;2023-02-28T02:05:28;4.20;;;2.40;;
18090;SDS011;9172;49.948;9.208;2023-02-28T02:08:01;2.03;;;1.63;;
18090;SDS011;9172;49.948;9.208;2023-02-28T02:10:30;3.97;;;2.23;;
18090;SDS011;9172;49.948;9.208;2023-02-28T02:16:05;2.10;;;1.90;;
18090;SDS011;9172;49.948;9.208;2023-02-28T02:18:39;2.40;;;2.00;;
18090;SDS011;9172;49.948;9.208;2023-02-28T02:21:16;2.83;;;1.97;;
18090;SDS011;9172;49.948;9.208;2023-02-28T02:24:14;5.27;;;1.97;;
18090;SDS011;9172;49.948;9.208;2023-02-28T02:30:14;4.17;;;2.13;;
18090;SDS011;9172;49.948;9.208;2023-02-28T02:35:53;2.93;;;2.13;;
18090;SDS011;9172;49.948;9.208;2023-02-28T02:38:29;3.10;;;2.40;;
18090;SDS011;9172;49.948;9.208;2023-02-28T02:41:02;3.60;;;2.13;;
18090;SDS011;9172;49.948;9.208;2023-02-28T02:43:34;3.30;;;2.10;;
18090;SDS011;9172;49.948;9.208;2023-02-28T02:46:07;3.53;;;2.30;;
18090;SDS011;9172;49.948;9.208;2023-02-28T02:48:38;2.80;;;2.40;;
18090;SDS011;9172;49.948;9.208;2023-02-28T02:51:10;4.03;;;2.43;;
18090;SDS011;9172;49.948;9.208;2023-02-28T02:53:43;3.53;;;2.70;;
18090;SDS011;9172;49.948;9.208;2023-02-28T02:56:15;2.80;;;2.13;;
18090;SDS011;9172;49.948;9.208;2023-02-28T02:58:46;6.67;;;2.43;;
18090;SDS011;9172;49.948;9.208;2023-02-28T03:01:18;4.60;;;2.50;;
18090;SDS011;9172;49.948;9.208;2023-02-28T03:03:51;4.03;;;2.40;;
18090;SDS011;9172;49.948;9.208;2023-02-28T03:06:21;3.97;;;2.33;;
18090;SDS011;9172;49.948;9.208;2023-02-28T03:08:50;5.63;;;2.53;;
18090;SDS011;9172;49.948;9.208;2023-02-28T03:11:19;2.43;;;2.13;;
18090;SDS011;9172;49.948;9.208;2023-02-28T03:13:53;2.23;;;2.03;;
18090;SDS011;9172;49.948;9.208;2023-02-28T03:16:31;4.87;;;2.30;;
18090;SDS011;9172;49.948;9.208;2023-02-28T03:22:36;3.57;;;2.17;;
18090;SDS011;9172;49.948;9.208;2023-02-28T03:25:11;4.40;;;2.10;;
18090;SDS011;9172;49.948;9.208;2023-02-28T03:27:42;3.30;;;2.30;;
18090;SDS011;9172;49.948;9.208;2023-02-28T03:30:14;4.53;;;2.53;;
18090;SDS011;9172;49.948;9.208;2023-02-28T03:32:47;3.63;;;2.63;;
18090;SDS011;9172;49.948;9.208;2023-02-28T03:35:18;2.50;;;2.23;;
18090;SDS011;9172;49.948;9.208;2023-02-28T03:37:49;3.50;;;2.00;;
18090;SDS011;9172;49.948;9.208;2023-02-28T03:40:20;2.53;;;2.13;;
18090;SDS011;9172;49.948;9.208;2023-02-28T03:42:53;5.67;;;2.70;;
18090;SDS011;9172;49.948;9.208;2023-02-28T03:45:24;2.77;;;2.30;;
18090;SDS011;9172;49.948;9.208;2023-02-28T03:47:57;2.80;;;2.37;;
18090;SDS011;9172;49.948;9.208;2023-02-28T03:50:29;3.83;;;2.37;;
18090;SDS011;9172;49.948;9.208;2023-02-28T03:53:00;2.43;;;2.13;;
18090;SDS011;9172;49.948;9.208;2023-02-28T03:55:35;3.13;;;2.07;;
18090;SDS011;9172;49.948;9.208;2023-02-28T03:58:05;4.87;;;2.50;;
18090;SDS011;9172;49.948;9.208;2023-02-28T04:00:37;3.93;;;2.60;;
18090;SDS011;9172;49.948;9.208;2023-02-28T04:03:08;2.67;;;2.10;;
18090;SDS011;9172;49.948;9.208;2023-02-28T04:05:44;5.67;;;2.70;;
18090;SDS011;9172;49.948;9.208;2023-02-28T04:08:17;4.57;;;2.20;;
18090;SDS011;9172;49.948;9.208;2023-02-28T04:10:47;4.90;;;2.50;;
18090;SDS011;9172;49.948;9.208;2023-02-28T04:13:17;4.40;;;2.47;;
18090;SDS011;9172;49.948;9.208;2023-02-28T04:15:47;4.13;;;2.63;;
18090;SDS011;9172;49.948;9.208;2023-02-28T04:18:15;3.27;;;2.50;;
18090;SDS011;9172;49.948;9.208;2023-02-28T04:20:44;4.17;;;2.40;;
18090;SDS011;9172;49.948;9.208;2023-02-28T04:23:13;3.27;;;2.40;;
18090;SDS011;9172;49.948;9.208;2023-02-28T04:25:42;6.23;;;2.50;;
18090;SDS011;9172;49.948;9.208;2023-02-28T04:28:11;2.93;;;2.43;;
18090;SDS011;9172;49.948;9.208;2023-02-28T04:30:40;3.97;;;2.30;;
18090;SDS011;9172;49.948;9.208;2023-02-28T04:33:09;3.07;;;2.33;;
18090;SDS011;9172;49.948;9.208;2023-02-28T04:35:39;4.43;;;2.00;;
18090;SDS011;9172;49.948;9.208;2023-02-28T04:38:08;3.60;;;2.23;;
18090;SDS011;9172;49.948;9.208;2023-02-28T04:40:38;3.00;;;2.30;;
18090;SDS011;9172;49.948;9.208;2023-02-28T04:43:06;4.50;;;2.53;;
18090;SDS011;9172;49.948;9.208;2023-02-28T04:45:35;2.93;;;2.30;;
18090;SDS011;9172;49.948;9.208;2023-02-28T04:48:04;2.70;;;2.20;;
18090;SDS011;9172;49.948;9.208;2023-02-28T04:50:32;4.27;;;2.27;;
18090;SDS011;9172;49.948;9.208;2023-02-28T04:53:01;4.63;;;2.90;;
18090;SDS011;9172;49.948;9.208;2023-02-28T04:55:29;2.80;;;2.27;;
18090;SDS011;9172;49.948;9.208;2023-02-28T04:57:59;3.33;;;2.60;;
18090;SDS011;9172;49.948;9.208;2023-02-28T05:00:28;3.73;;;2.17;;
18090;SDS011;9172;49.948;9.208;2023-02-28T05:02:56;3.67;;;2.60;;
18090;SDS011;9172;49.948;9.208;2023-02-28T05:05:25;4.23;;;2.33;;
18090;SDS011;9172;49.948;9.208;2023-02-28T05:07:53;4.77;;;2.57;;
18090;SDS011;9172;49.948;9.208;2023-02-28T05:10:23;7.23;;;2.43;;
18090;SDS011;9172;49.948;9.208;2023-02-28T05:12:52;3.73;;;2.63;;
18090;SDS011;9172;49.948;9.208;2023-02-28T05:15:22;4.20;;;2.77;;
18090;SDS011;9172;49.948;9.208;2023-02-28T05:17:50;3.93;;;2.63;;
18090;SDS011;9172;49.948;9.208;2023-02-28T05:20:20;2.50;;;1.90;;
18090;SDS011;9172;49.948;9.208;2023-02-28T05:22:49;2.67;;;1.87;;
18090;SDS011;9172;49.948;9.208;2023-02-28T05:25:19;4.43;;;2.60;;
18090;SDS011;9172;49.948;9.208;2023-02-28T05:27:49;4.00;;;2.10;;
18090;SDS011;9172;49.948;9.208;2023-02-28T05:30:18;3.67;;;2.50;;
18090;SDS011;9172;49.948;9.208;2023-02-28T05:32:49;3.83;;;2.40;;
18090;SDS011;9172;49.948;9.208;2023-02-28T05:35:19;4.63;;;2.73;;
18090;SDS011;9172;49.948;9.208;2023-02-28T05:37:47;4.97;;;2.93;;
18090;SDS011;9172;49.948;9.208;2023-02-28T05:40:18;7.77;;;2.77;;
18090;SDS011;9172;49.948;9.208;2023-02-28T05:42:47;3.30;;;2.30;;
18090;SDS011;9172;49.948;9.208;2023-02-28T05:45:18;4.00;;;2.27;;
18090;SDS011;9172;49.948;9.208;2023-02-28T05:47:46;2.90;;;2.20;;
18090;SDS011;9172;49.948;9.208;2023-02-28T05:50:16;4.73;;;2.83;;
18090;SDS011;9172;49.948;9.208;2023-02-28T05:52:44;5.93;;;3.00;;
18090;SDS011;9172;49.948;9.208;2023-02-28T05:55:16;4.57;;;2.70;;
18090;SDS011;9172;49.948;9.208;2023-02-28T05:57:46;3.77;;;2.43;;
18090;SDS011;9172;49.948;9.208;2023-02-28T06:00:15;6.73;;;2.63;;
18090;SDS011;9172;49.948;9.208;2023-02-28T06:02:45;3.57;;;2.30;;
18090;SDS011;9172;49.948;9.208;2023-02-28T06:05:14;2.80;;;2.27;;
18090;SDS011;9172;49.948;9.208;2023-02-28T06:07:44;3.70;;;2.50;;
18090;SDS011;9172;49.948;9.208;2023-02-28T06:10:13;3.37;;;2.70;;
18090;SDS011;9172;49.948;9.208;2023-02-28T06:12:42;3.10;;;2.37;;
18090;SDS011;9172;49.948;9.208;2023-02-28T06:15:12;3.57;;;2.20;;
18090;SDS011;9172;49.948;9.208;2023-02-28T06:17:43;2.87;;;2.47;;
18090;SDS011;9172;49.948;9.208;2023-02-28T06:20:12;3.77;;;2.40;;
18090;SDS011;9172;49.948;9.208;2023-02-28T06:22:41;4.70;;;2.53;;
18090;SDS011;9172;49.948;9.208;2023-02-28T06:25:10;4.53;;;2.70;;
18090;SDS011;9172;49.948;9.208;2023-02-28T06:27:39;5.80;;;3.30;;
18090;SDS011;9172;49.948;9.208;2023-02-28T06:30:09;3.73;;;2.60;;
18090;SDS011;9172;49.948;9.208;2023-02-28T06:32:39;6.27;;;3.00;;
18090;SDS011;9172;49.948;9.208;2023-02-28T06:35:08;3.67;;;2.73;;
18090;SDS011;9172;49.948;9.208;2023-02-28T06:37:38;2.83;;;2.03;;
18090;SDS011;9172;49.948;9.208;2023-02-28T06:40:07;3.60;;;2.20;;
18090;SDS011;9172;49.948;9.208;2023-02-28T06:42:39;3.77;;;2.87;;
18090;SDS011;9172;49.948;9.208;2023-02-28T06:45:08;7.90;;;2.23;;
18090;SDS011;9172;49.948;9.208;2023-02-28T06:47:39;3.50;;;2.53;;
18090;SDS011;9172;49.948;9.208;2023-02-28T06:50:10;3.97;;;2.53;;
18090;SDS011;9172;49.948;9.208;2023-02-28T06:52:39;3.60;;;2.60;;
18090;SDS011;9172;49.948;9.208;2023-02-28T06:55:08;7.37;;;2.20;;
18090;SDS011;9172;49.948;9.208;2023-02-28T06:57:37;3.57;;;2.50;;
18090;SDS011;9172;49.948;9.208;2023-02-28T07:00:09;2.93;;;2.30;;
18090;SDS011;9172;49.948;9.208;2023-02-28T07:02:40;5.73;;;3.00;;
18090;SDS011;9172;49.948;9.208;2023-02-28T07:05:08;4.70;;;3.13;;
18090;SDS011;9172;49.948;9.208;2023-02-28T07:07:37;5.50;;;4.07;;
18090;SDS011;9172;49.948;9.208;2023-02-28T07:10:09;5.50;;;3.33;;
18090;SDS011;9172;49.948;9.208;2023-02-28T07:12:39;4.83;;;2.93;;
18090;SDS011;9172;49.948;9.208;2023-02-28T07:15:09;5.70;;;2.93;;
18090;SDS011;9172;49.948;9.208;2023-02-28T07:17:38;4.53;;;2.83;;
18090;SDS011;9172;49.948;9.208;2023-02-28T07:20:08;3.57;;;2.90;;
18090;SDS011;9172;49.948;9.208;2023-02-28T07:22:38;4.77;;;2.87;;
18090;SDS011;9172;49.948;9.208;2023-02-28T07:25:08;3.90;;;2.50;;
18090;SDS011;9172;49.948;9.208;2023-02-28T07:27:38;2.83;;;2.40;;
18090;SDS011;9172;49.948;9.208;2023-02-28T07:30:08;4.43;;;2.87;;
18090;SDS011;9172;49.948;9.208;2023-02-28T07:32:39;5.53;;;3.27;;
18090;SDS011;9172;49.948;9.208;2023-02-28T07:35:08;4.97;;;2.83;;
18090;SDS011;9172;49.948;9.208;2023-02-28T07:37:37;6.57;;;2.97;;
18090;SDS011;9172;49.948;9.208;2023-02-28T07:40:08;4.40;;;2.53;;
18090;SDS011;9172;49.948;9.208;2023-02-28T07:42:38;4.50;;;2.80;;
18090;SDS011;9172;49.948;9.208;2023-02-28T07:45:08;3.27;;;2.47;;
18090;SDS011;9172;49.948;9.208;2023-02-28T07:47:38;4.80;;;3.20;;
18090;SDS011;9172;49.948;9.208;2023-02-28T07:50:07;7.50;;;2.60;;
18090;SDS011;9172;49.948;9.208;2023-02-28T07:52:39;3.70;;;2.60;;
18090;SDS011;9172;49.948;9.208;2023-02-28T07:55:09;3.63;;;2.57;;
18090;SDS011;9172;49.948;9.208;2023-02-28T07:57:39;3.90;;;2.70;;
18090;SDS011;9172;49.948;9.208;2023-02-28T08:00:09;4.57;;;2.80;;
18090;SDS011;9172;49.948;9.208;2023-02-28T08:02:40;4.17;;;2.57;;
18090;SDS011;9172;49.948;9.208;2023-02-28T08:05:10;6.73;;;3.20;;
18090;SDS011;9172;49.948;9.208;2023-02-28T08:07:39;4.53;;;2.67;;
18090;SDS011;9172;49.948;9.208;2023-02-28T08:10:08;4.17;;;3.00;;
18090;SDS011;9172;49.948;9.208;2023-02-28T08:12:38;5.63;;;3.50;;
18090;SDS011;9172;49.948;9.208;2023-02-28T08:15:08;3.97;;;2.73;;
18090;SDS011;9172;49.948;9.208;2023-02-28T08:17:37;4.93;;;3.10;;
18090;SDS011;9172;49.948;9.208;2023-02-28T08:20:07;6.83;;;3.40;;
18090;SDS011;9172;49.948;9.208;2023-02-28T08:22:37;5.23;;;3.37;;
18090;SDS011;9172;49.948;9.208;2023-02-28T08:25:07;5.80;;;3.03;;
18090;SDS011;9172;49.948;9.208;2023-02-28T08:27:37;5.17;;;3.17;;
18090;SDS011;9172;49.948;9.208;2023-02-28T08:30:07;5.00;;;2.97;;
18090;SDS011;9172;49.948;9.208;2023-02-28T08:32:37;5.17;;;2.90;;
18090;SDS011;9172;49.948;9.208;2023-02-28T08:35:06;6.93;;;3.60;;
18090;SDS011;9172;49.948;9.208;2023-02-28T08:37:36;6.13;;;3.23;;
18090;SDS011;9172;49.948;9.208;2023-02-28T08:40:06;5.17;;;3.20;;
18090;SDS011;9172;49.948;9.208;2023-02-28T08:42:37;6.93;;;2.93;;
18090;SDS011;9172;49.948;9.208;2023-02-28T08:45:06;5.10;;;3.40;;
18090;SDS011;9172;49.948;9.208;2023-02-28T08:47:36;5.47;;;3.50;;
18090;SDS011;9172;49.948;9.208;2023-02-28T08:50:06;4.07;;;2.77;;
18090;SDS011;9172;49.948;9.208;2023-02-28T08:52:37;5.17;;;3.00;;
18090;SDS011;9172;49.948;9.208;2023-02-28T08:55:06;5.27;;;3.40;;
18090;SDS011;9172;49.948;9.208;2023-02-28T08:57:36;6.20;;;3.17;;
18090;SDS011;9172;49.948;9.208;2023-02-28T09:00:06;4.27;;;3.40;;
18090;SDS011;9172;49.948;9.208;2023-02-28T09:02:39;5.87;;;3.23;;
18090;SDS011;9172;49.948;9.208;2023-02-28T09:05:09;5.93;;;3.40;;
18090;SDS011;9172;49.948;9.208;2023-02-28T09:07:38;4.70;;;2.87;;
18090;SDS011;9172;49.948;9.208;2023-02-28T09:10:09;8.00;;;3.23;;
18090;SDS011;9172;49.948;9.208;2023-02-28T09:12:38;5.90;;;3.63;;
18090;SDS011;9172;49.948;9.208;2023-02-28T09:15:11;5.90;;;3.27;;
18090;SDS011;9172;49.948;9.208;2023-02-28T09:17:39;5.10;;;3.40;;
18090;SDS011;9172;49.948;9.208;2023-02-28T09:20:09;7.20;;;3.73;;
18090;SDS011;9172;49.948;9.208;2023-02-28T09:22:40;5.50;;;3.40;;
18090;SDS011;9172;49.948;9.208;2023-02-28T09:25:09;6.33;;;3.43;;
18090;SDS011;9172;49.948;9.208;2023-02-28T09:27:38;6.07;;;3.40;;
18090;SDS011;9172;49.948;9.208;2023-02-28T09:30:12;7.50;;;3.70;;
18090;SDS011;9172;49.948;9.208;2023-02-28T09:32:42;6.13;;;3.07;;
18090;SDS011;9172;49.948;9.208;2023-02-28T09:35:13;5.60;;;3.80;;
18090;SDS011;9172;49.948;9.208;2023-02-28T09:37:43;4.77;;;3.10;;
18090;SDS011;9172;49.948;9.208;2023-02-28T09:40:12;5.80;;;3.60;;
18090;SDS011;9172;49.948;9.208;2023-02-28T09:42:44;5.03;;;3.33;;
18090;SDS011;9172;49.948;9.208;2023-02-28T09:45:19;5.27;;;3.00;;
18090;SDS011;9172;49.948;9.208;2023-02-28T09:47:50;7.50;;;3.50;;
18090;SDS011;9172;49.948;9.208;2023-02-28T09:50:23;6.70;;;3.60;;
18090;SDS011;9172;49.948;9.208;2023-02-28T09:53:00;4.23;;;2.90;;
18090;SDS011;9172;49.948;9.208;2023-02-28T09:55:32;8.37;;;3.30;;
18090;SDS011;9172;49.948;9.208;2023-02-28T09:58:03;5.33;;;3.30;;
18090;SDS011;9172;49.948;9.208;2023-02-28T10:00:35;6.73;;;3.67;;
18090;SDS011;9172;49.948;9.208;2023-02-28T10:03:26;5.17;;;3.30;;
18090;SDS011;9172;49.948;9.208;2023-02-28T10:05:59;5.43;;;3.30;;
18090;SDS011;9172;49.948;9.208;2023-02-28T10:08:33;4.67;;;3.53;;
18090;SDS011;9172;49.948;9.208;2023-02-28T10:11:09;6.20;;;3.50;;
18090;SDS011;9172;49.948;9.208;2023-02-28T10:13:45;12.27;;;3.20;;
18090;SDS011;9172;49.948;9.208;2023-02-28T10:16:17;7.33;;;3.87;;
18090;SDS011;9172;49.948;9.208;2023-02-28T10:18:50;5.87;;;3.00;;
18090;SDS011;9172;49.948;9.208;2023-02-28T10:21:23;4.53;;;2.70;;
18090;SDS011;9172;49.948;9.208;2023-02-28T10:23:56;4.50;;;3.10;;
18090;SDS011;9172;49.948;9.208;2023-02-28T10:26:25;3.63;;;2.90;;
18090;SDS011;9172;49.948;9.208;2023-02-28T10:28:57;5.63;;;3.33;;
18090;SDS011;9172;49.948;9.208;2023-02-28T10:31:26;7.60;;;3.30;;
18090;SDS011;9172;49.948;9.208;2023-02-28T10:33:55;4.23;;;2.93;;
18090;SDS011;9172;49.948;9.208;2023-02-28T10:36:25;4.83;;;3.27;;
18090;SDS011;9172;49.948;9.208;2023-02-28T10:38:54;5.57;;;3.50;;
18090;SDS011;9172;49.948;9.208;2023-02-28T10:41:29;7.90;;;3.80;;
18090;SDS011;9172;49.948;9.208;2023-02-28T10:44:12;6.70;;;3.57;;
18090;SDS011;9172;49.948;9.208;2023-02-28T10:46:44;4.10;;;3.23;;
18090;SDS011;9172;49.948;9.208;2023-02-28T10:49:14;6.13;;;3.60;;
18090;SDS011;9172;49.948;9.208;2023-02-28T10:51:52;6.60;;;3.70;;
18090;SDS011;9172;49.948;9.208;2023-02-28T10:54:19;4.73;;;3.33;;
18090;SDS011;9172;49.948;9.208;2023-02-28T11:00:11;12.80;;;3.83;;
18090;SDS011;9172;49.948;9.208;2023-02-28T11:02:40;6.20;;;3.47;;
18090;SDS011;9172;49.948;9.208;2023-02-28T11:05:27;7.57;;;3.80;;
18090;SDS011;9172;49.948;9.208;2023-02-28T11:08:02;4.87;;;3.63;;
18090;SDS011;9172;49.948;9.208;2023-02-28T11:10:32;5.00;;;3.30;;
18090;SDS011;9172;49.948;9.208;2023-02-28T11:13:01;5.17;;;3.40;;
18090;SDS011;9172;49.948;9.208;2023-02-28T11:15:32;6.30;;;3.63;;
18090;SDS011;9172;49.948;9.208;2023-02-28T11:18:17;6.57;;;3.73;;
18090;SDS011;9172;49.948;9.208;2023-02-28T11:20:39;6.47;;;3.40;;
18090;SDS011;9172;49.948;9.208;2023-02-28T11:23:11;6.03;;;3.50;;
18090;SDS011;9172;49.948;9.208;2023-02-28T11:25:46;4.87;;;3.53;;
18090;SDS011;9172;49.948;9.208;2023-02-28T11:28:24;6.07;;;3.73;;
18090;SDS011;9172;49.948;9.208;2023-02-28T11:31:00;6.07;;;3.73;;
18090;SDS011;9172;49.948;9.208;2023-02-28T11:33:31;6.17;;;3.70;;
18090;SDS011;9172;49.948;9.208;2023-02-28T11:36:04;7.33;;;3.50;;
18090;SDS011;9172;49.948;9.208;2023-02-28T11:38:37;6.73;;;3.60;;
18090;SDS011;9172;49.948;9.208;2023-02-28T11:41:11;6.67;;;3.97;;
18090;SDS011;9172;49.948;9.208;2023-02-28T11:43:49;6.07;;;3.57;;
18090;SDS011;9172;49.948;9.208;2023-02-28T11:46:24;6.27;;;3.77;;
18090;SDS011;9172;49.948;9.208;2023-02-28T11:48:58;5.47;;;3.63;;
18090;SDS011;9172;49.948;9.208;2023-02-28T11:51:28;6.83;;;3.67;;
18090;SDS011;9172;49.948;9.208;2023-02-28T11:54:04;7.53;;;4.03;;
18090;SDS011;9172;49.948;9.208;2023-02-28T11:56:38;6.47;;;4.33;;
18090;SDS011;9172;49.948;9.208;2023-02-28T11:59:18;6.77;;;4.00;;
18090;SDS011;9172;49.948;9.208;2023-02-28T12:02:06;8.10;;;3.40;;
18090;SDS011;9172;49.948;9.208;2023-02-28T12:04:48;6.50;;;3.83;;
18090;SDS011;9172;49.948;9.208;2023-02-28T12:07:24;6.17;;;3.70;;
18090;SDS011;9172;49.948;9.208;2023-02-28T12:09:56;6.63;;;3.77;;
18090;SDS011;9172;49.948;9.208;2023-02-28T12:12:32;6.40;;;3.30;;
18090;SDS011;9172;49.948;9.208;2023-02-28T12:15:12;4.50;;;3.10;;
18090;SDS011;9172;49.948;9.208;2023-02-28T12:17:50;5.03;;;3.40;;
18090;SDS011;9172;49.948;9.208;2023-02-28T12:20:24;9.57;;;4.20;;
18090;SDS011;9172;49.948;9.208;2023-02-28T12:22:58;6.60;;;4.27;;
18090;SDS011;9172;49.948;9.208;2023-02-28T12:25:42;6.33;;;4.00;;
18090;SDS011;9172;49.948;9.208;2023-02-28T12:28:20;6.27;;;3.70;;
18090;SDS011;9172;49.948;9.208;2023-02-28T12:30:51;10.40;;;3.80;;
18090;SDS011;9172;49.948;9.208;2023-02-28T12:33:22;7.30;;;3.90;;
18090;SDS011;9172;49.948;9.208;2023-02-28T12:35:54;6.83;;;3.87;;
18090;SDS011;9172;49.948;9.208;2023-02-28T12:38:24;6.40;;;3.73;;
18090;SDS011;9172;49.948;9.208;2023-02-28T12:40:56;5.73;;;3.73;;
18090;SDS011;9172;49.948;9.208;2023-02-28T12:43:29;4.70;;;3.47;;
18090;SDS011;9172;49.948;9.208;2023-02-28T12:46:00;6.30;;;3.67;;
18090;SDS011;9172;49.948;9.208;2023-02-28T12:48:39;7.13;;;3.70;;
18090;SDS011;9172;49.948;9.208;2023-02-28T12:51:05;5.27;;;3.40;;
18090;SDS011;9172;49.948;9.208;2023-02-28T12:53:38;5.53;;;3.70;;
18090;SDS011;9172;49.948;9.208;2023-02-28T12:56:12;7.17;;;4.27;;
18090;SDS011;9172;49.948;9.208;2023-02-28T12:58:43;7.77;;;3.70;;
18090;SDS011;9172;49.948;9.208;2023-02-28T13:01:36;6.10;;;4.00;;
18090;SDS011;9172;49.948;9.208;2023-02-28T13:04:33;7.93;;;4.27;;
18090;SDS011;9172;49.948;9.208;2023-02-28T13:07:12;7.10;;;4.10;;
18090;SDS011;9172;49.948;9.208;2023-02-28T13:09:52;7.37;;;4.10;;
18090;SDS011;9172;49.948;9.208;2023-02-28T13:12:23;6.47;;;3.43;;
18090;SDS011;9172;49.948;9.208;2023-02-28T13:15:01;10.50;;;5.67;;
18090;SDS011;9172;49.948;9.208;2023-02-28T13:17:34;7.03;;;4.00;;
18090;SDS011;9172;49.948;9.208;2023-02-28T13:20:04;5.27;;;3.43;;
18090;SDS011;9172;49.948;9.208;2023-02-28T13:22:40;5.80;;;3.40;;
18090;SDS011;9172;49.948;9.208;2023-02-28T13:34:46;9.03;;;3.93;;
18090;SDS011;9172;49.948;9.208;2023-02-28T13:37:33;7.10;;;3.33;;
18090;SDS011;9172;49.948;9.208;2023-02-28T13:40:26;5.70;;;3.43;;
18090;SDS011;9172;49.948;9.208;2023-02-28T13:43:01;7.73;;;4.00;;
18090;SDS011;9172;49.948;9.208;2023-02-28T13:45:29;5.13;;;3.73;;
18090;SDS011;9172;49.948;9.208;2023-02-28T13:48:00;6.30;;;4.27;;
18090;SDS011;9172;49.948;9.208;2023-02-28T13:50:32;9.87;;;4.30;;
18090;SDS011;9172;49.948;9.208;2023-02-28T13:56:09;5.20;;;3.40;;
18090;SDS011;9172;49.948;9.208;2023-02-28T13:58:49;9.50;;;4.27;;
18090;SDS011;9172;49.948;9.208;2023-02-28T14:01:28;10.03;;;4.17;;
18090;SDS011;9172;49.948;9.208;2023-02-28T14:04:05;9.00;;;3.93;;
18090;SDS011;9172;49.948;9.208;2023-02-28T14:06:47;7.67;;;3.93;;
18090;SDS011;9172;49.948;9.208;2023-02-28T14:09:19;7.70;;;4.10;;
18090;SDS011;9172;49.948;9.208;2023-02-28T14:11:51;5.63;;;3.70;;
18090;SDS011;9172;49.948;9.208;2023-02-28T14:17:23;18.67;;;4.00;;
18090;SDS011;9172;49.948;9.208;2023-02-28T14:19:53;6.10;;;4.07;;
18090;SDS011;9172;49.948;9.208;2023-02-28T14:22:32;4.93;;;3.47;;
18090;SDS011;9172;49.948;9.208;2023-02-28T14:25:18;5.07;;;3.27;;
18090;SDS011;9172;49.948;9.208;2023-02-28T14:27:54;6.40;;;4.00;;
18090;SDS011;9172;49.948;9.208;2023-02-28T14:30:37;8.83;;;3.53;;
18090;SDS011;9172;49.948;9.208;2023-02-28T14:33:27;6.20;;;3.63;;
18090;SDS011;9172;49.948;9.208;2023-02-28T14:36:16;9.70;;;3.57;;
18090;SDS011;9172;49.948;9.208;2023-02-28T14:38:48;7.37;;;3.87;;
18090;SDS011;9172;49.948;9.208;2023-02-28T14:41:21;8.23;;;4.03;;
18090;SDS011;9172;49.948;9.208;2023-02-28T14:43:53;5.27;;;3.73;;
18090;SDS011;9172;49.948;9.208;2023-02-28T14:46:24;6.60;;;3.07;;
18090;SDS011;9172;49.948;9.208;2023-02-28T14:48:56;10.57;;;4.10;;
18090;SDS011;9172;49.948;9.208;2023-02-28T14:51:25;6.53;;;3.87;;
18090;SDS011;9172;49.948;9.208;2023-02-28T14:53:57;5.93;;;3.73;;
18090;SDS011;9172;49.948;9.208;2023-02-28T14:56:28;7.03;;;3.37;;
18090;SDS011;9172;49.948;9.208;2023-02-28T14:58:59;8.50;;;4.10;;
18090;SDS011;9172;49.948;9.208;2023-02-28T15:01:29;6.40;;;3.57;;
18090;SDS011;9172;49.948;9.208;2023-02-28T15:04:00;6.37;;;3.50;;
18090;SDS011;9172;49.948;9.208;2023-02-28T15:06:31;8.00;;;3.70;;
18090;SDS011;9172;49.948;9.208;2023-02-28T15:09:14;5.47;;;3.77;;
18090;SDS011;9172;49.948;9.208;2023-02-28T15:11:46;9.27;;;3.53;;
18090;SDS011;9172;49.948;9.208;2023-02-28T15:14:18;7.03;;;3.97;;
18090;SDS011;9172;49.948;9.208;2023-02-28T15:16:49;6.73;;;4.17;;
18090;SDS011;9172;49.948;9.208;2023-02-28T15:19:21;8.60;;;3.70;;
18090;SDS011;9172;49.948;9.208;2023-02-28T15:21:54;6.57;;;3.80;;
18090;SDS011;9172;49.948;9.208;2023-02-28T15:24:29;8.43;;;4.00;;
18090;SDS011;9172;49.948;9.208;2023-02-28T15:27:02;6.80;;;3.90;;
18090;SDS011;9172;49.948;9.208;2023-02-28T15:29:32;7.43;;;4.47;;
18090;SDS011;9172;49.948;9.208;2023-02-28T15:32:05;6.90;;;3.43;;
18090;SDS011;9172;49.948;9.208;2023-02-28T15:34:35;6.43;;;3.90;;
18090;SDS011;9172;49.948;9.208;2023-02-28T15:37:07;6.17;;;3.47;;
18090;SDS011;9172;49.948;9.208;2023-02-28T15:39:53;5.50;;;3.47;;
18090;SDS011;9172;49.948;9.208;2023-02-28T15:42:28;6.03;;;3.20;;
18090;SDS011;9172;49.948;9.208;2023-02-28T15:44:57;6.37;;;3.53;;
18090;SDS011;9172;49.948;9.208;2023-02-28T15:47:26;6.53;;;3.50;;
18090;SDS011;9172;49.948;9.208;2023-02-28T15:50:06;6.43;;;3.73;;
18090;SDS011;9172;49.948;9.208;2023-02-28T15:52:39;5.43;;;3.60;;
18090;SDS011;9172;49.948;9.208;2023-02-28T15:55:18;10.30;;;4.27;;
18090;SDS011;9172;49.948;9.208;2023-02-28T15:57:49;7.13;;;3.80;;
18090;SDS011;9172;49.948;9.208;2023-02-28T16:00:21;7.50;;;3.50;;